Time;durP1;ratioP1;P1;durP2;ratioP2;P2;SDS_P1;SDS_P2;PMS_P1;PMS_P2;Temp;Humidity;BMP_temperature;BMP_pressure;BME280_temperature;BME280_humidity;BME280_pressure;Samples;Min_cycle;Max_cycle;Signal;HPM_P1;HPM_P2
2024/03/21 00:12:44;;;;;;;11.37;10.53;;;14.20;21.50;;;;;;4871152;29;20449;-85
2024/03/21 00:15:30;;;;;;;12.60;11.90;;;14.10;21.40;;;;;;4878632;29;20794;-85
2024/03/21 00:18:43;;;;;;;11.83;11.03;;;14.10;21.40;;;;;;4879473;29;20463;-85
2024/03/21 00:22:21;;;;;;;12.00;11.10;;;14.20;21.30;;;;;;4915484;29;20516;-85
2024/03/21 00:25:44;;;;;;;11.10;10.30;;;14.20;21.00;;;;;;4895964;29;20445;-85
2024/03/21 00:28:45;;;;;;;11.70;11.00;;;14.10;21.00;;;;;;4897719;29;20477;-85
2024/03/21 00:32:15;;;;;;;12.10;11.40;;;14.10;21.40;;;;;;4896303;29;20425;-85
2024/03/21 00:44:41;;;;;;;11.67;10.73;;;14.10;21.10;;;;;;4878638;29;20446;-85
2024/03/21 00:50:45;;;;;;;12.43;11.70;;;14.00;21.00;;;;;;4900595;29;21008;-85
2024/03/21 01:14:27;;;;;;;10.37;9.73;;;13.90;21.10;;;;;;4886248;29;20497;-85
2024/03/21 01:28:23;;;;;;;9.40;8.90;;;13.80;21.20;;;;;;4775820;29;20464;-85
2024/03/21 02:16:30;;;;;;;11.30;10.73;;;13.80;21.40;;;;;;4802020;29;20481;-85
2024/03/21 02:19:54;;;;;;;10.50;9.90;;;13.70;21.60;;;;;;4804003;29;20576;-84
2024/03/21 02:37:00;;;;;;;9.90;9.27;;;13.70;21.90;;;;;;4734093;30;20421;-84
2024/03/21 03:10:42;;;;;;;10.70;10.10;;;13.90;22.50;;;;;;4846942;29;20490;-85
2024/03/21 03:17:33;;;;;;;11.30;10.60;;;13.90;22.60;;;;;;4851385;29;20426;-85
2024/03/21 03:23:40;;;;;;;10.60;10.10;;;13.90;22.70;;;;;;4902987;23;20583;-82
2024/03/21 03:26:06;;;;;;;10.33;9.73;;;14.00;22.90;;;;;;4911729;29;20542;-81
2024/03/21 03:28:31;;;;;;;9.30;8.80;;;14.00;23.00;;;;;;4909058;29;20282;-81
2024/03/21 03:30:57;;;;;;;9.60;9.10;;;14.00;23.00;;;;;;4904257;29;20727;-81
2024/03/21 03:36:06;;;;;;;9.30;8.80;;;14.10;22.80;;;;;;4939725;29;20190;-81
2024/03/21 03:38:32;;;;;;;9.10;8.60;;;14.10;22.90;;;;;;4924348;29;20420;-80
2024/03/21 03:40:58;;;;;;;8.33;7.93;;;14.10;22.90;;;;;;4922967;29;20191;-81
2024/03/21 03:43:23;;;;;;;8.50;8.10;;;14.20;22.90;;;;;;4922443;29;20214;-81
2024/03/21 03:45:49;;;;;;;10.10;9.43;;;14.20;22.70;;;;;;4922541;29;20442;-82
2024/03/21 03:48:14;;;;;;;10.97;10.07;;;14.20;22.70;;;;;;4921449;29;20187;-79
2024/03/21 03:50:40;;;;;;;11.27;10.67;;;14.10;22.80;;;;;;4921019;29;20688;-80
2024/03/21 03:53:05;;;;;;;12.10;11.27;;;13.90;22.90;;;;;;4903808;29;20689;-82
2024/03/21 03:55:31;;;;;;;12.33;11.37;;;13.80;23.00;;;;;;4920050;29;20196;-81
2024/03/21 03:57:57;;;;;;;12.37;11.13;;;13.70;23.30;;;;;;4920489;29;20569;-81
2024/03/21 04:00:22;;;;;;;11.27;10.57;;;13.80;23.30;;;;;;4930487;29;20200;-82
2024/03/21 04:02:48;;;;;;;14.33;10.80;;;13.90;23.20;;;;;;4939206;29;20207;-80
2024/03/21 04:05:17;;;;;;;11.17;10.37;;;13.90;23.20;;;;;;4939138;29;20668;-80
2024/03/21 04:07:43;;;;;;;12.20;11.40;;;13.90;23.10;;;;;;4922462;29;20188;-80
2024/03/21 04:10:09;;;;;;;11.53;10.83;;;14.00;23.00;;;;;;4922123;29;21034;-82
2024/03/21 04:12:34;;;;;;;11.87;11.10;;;14.00;22.70;;;;;;4919231;29;20524;-83
2024/03/21 04:15:00;;;;;;;11.37;10.77;;;14.00;22.80;;;;;;4920319;29;20267;-82
2024/03/21 04:17:26;;;;;;;11.20;10.37;;;14.00;22.80;;;;;;4904902;29;20212;-82
2024/03/21 04:19:51;;;;;;;11.77;11.17;;;14.00;22.70;;;;;;4911289;29;20566;-80
2024/03/21 04:22:17;;;;;;;12.47;11.67;;;13.90;22.70;;;;;;4924137;29;20676;-81
2024/03/21 04:24:43;;;;;;;11.40;10.80;;;13.80;23.00;;;;;;4917953;29;20212;-80
2024/03/21 04:27:09;;;;;;;11.67;11.07;;;13.70;23.00;;;;;;4927859;29;20188;-79
2024/03/21 04:29:35;;;;;;;11.90;11.30;;;13.60;23.30;;;;;;4913928;29;20832;-80
2024/03/21 04:32:00;;;;;;;12.20;11.50;;;13.70;23.40;;;;;;4938303;29;20443;-79
2024/03/21 04:34:26;;;;;;;11.97;11.23;;;13.70;23.80;;;;;;4920062;29;20213;-81
2024/03/21 04:36:51;;;;;;;11.90;11.30;;;13.70;23.30;;;;;;4919527;29;20201;-80
2024/03/21 04:39:17;;;;;;;13.27;12.13;;;13.70;23.40;;;;;;4918770;29;20280;-80
2024/03/21 04:41:43;;;;;;;12.17;11.37;;;13.80;23.20;;;;;;4921542;29;20187;-80
2024/03/21 04:44:08;;;;;;;12.50;11.50;;;13.80;23.20;;;;;;4938254;29;20255;-81
2024/03/21 04:46:34;;;;;;;11.53;10.93;;;13.90;23.20;;;;;;4921127;29;20192;-80
2024/03/21 04:48:59;;;;;;;11.90;10.93;;;13.90;22.80;;;;;;4924310;29;20215;-81
2024/03/21 04:51:25;;;;;;;11.60;10.90;;;14.00;22.80;;;;;;4902383;29;20191;-81
2024/03/21 04:53:50;;;;;;;12.07;11.33;;;14.00;22.60;;;;;;4901937;29;20219;-80
2024/03/21 04:56:16;;;;;;;12.20;11.50;;;14.00;23.00;;;;;;4917958;29;20188;-79
2024/03/21 04:58:41;;;;;;;10.40;9.90;;;14.00;23.00;;;;;;4937539;29;20183;-81
2024/03/21 05:01:07;;;;;;;11.43;10.77;;;14.00;23.00;;;;;;4920379;29;20199;-81
2024/03/21 05:03:33;;;;;;;12.43;11.70;;;14.10;22.80;;;;;;4920530;29;20584;-80
2024/03/21 05:05:58;;;;;;;12.30;11.57;;;14.10;22.70;;;;;;4916917;29;20221;-80
2024/03/21 05:08:25;;;;;;;12.13;11.53;;;14.10;22.50;;;;;;4909155;29;20193;-79
2024/03/21 05:10:51;;;;;;;13.30;12.40;;;14.10;22.40;;;;;;4923358;29;20275;-80
2024/03/21 05:13:16;;;;;;;11.30;10.70;;;14.20;22.50;;;;;;4936812;29;20982;-79
2024/03/21 05:15:49;;;;;;;12.27;11.57;;;14.10;22.80;;;;;;4925231;29;20644;-79
2024/03/21 05:18:14;;;;;;;12.40;11.60;;;14.10;22.70;;;;;;4901016;29;20240;-79
2024/03/21 05:20:40;;;;;;;11.53;10.93;;;14.20;22.80;;;;;;4922226;29;20519;-79
2024/03/21 05:23:05;;;;;;;13.47;12.27;;;14.10;22.80;;;;;;4919377;29;20722;-79
2024/03/21 05:25:33;;;;;;;12.17;11.40;;;14.10;22.90;;;;;;4936080;29;20694;-80
2024/03/21 05:27:59;;;;;;;12.43;11.73;;;14.10;22.80;;;;;;4936623;29;20683;-81
2024/03/21 05:30:24;;;;;;;13.17;12.47;;;14.10;23.10;;;;;;4936519;29;20475;-79
2024/03/21 05:32:50;;;;;;;12.40;11.60;;;14.10;23.10;;;;;;4924269;29;20283;-78
2024/03/21 05:35:15;;;;;;;13.03;12.23;;;14.10;23.20;;;;;;4917654;29;20227;-79
2024/03/21 05:37:41;;;;;;;11.73;11.13;;;14.10;23.10;;;;;;4912814;29;20279;-79
2024/03/21 05:40:08;;;;;;;11.53;10.93;;;14.10;23.20;;;;;;4937757;29;20668;-79
2024/03/21 05:42:33;;;;;;;11.67;10.97;;;14.10;23.40;;;;;;4927058;29;20177;-81
2024/03/21 05:44:59;;;;;;;11.90;11.10;;;14.20;23.30;;;;;;4918955;29;20436;-79
2024/03/21 05:47:24;;;;;;;11.97;11.30;;;14.10;23.10;;;;;;4928663;29;20216;-80
2024/03/21 05:49:50;;;;;;;11.63;10.90;;;14.20;23.20;;;;;;4919940;29;20220;-80
2024/03/21 05:52:16;;;;;;;11.60;10.90;;;14.20;23.10;;;;;;4936005;29;20215;-78
2024/03/21 05:54:47;;;;;;;12.60;11.80;;;14.20;23.00;;;;;;4920302;29;20247;-80
2024/03/21 05:57:12;;;;;;;12.40;11.60;;;14.30;23.10;;;;;;4921297;29;20450;-81
2024/03/21 05:59:38;;;;;;;11.30;10.60;;;14.10;23.20;;;;;;4922398;29;20455;-78
2024/03/21 06:02:04;;;;;;;11.90;11.10;;;14.00;23.60;;;;;;4907309;29;20657;-79
2024/03/21 06:04:29;;;;;;;12.80;12.00;;;13.90;23.90;;;;;;4911710;29;20204;-81
2024/03/21 06:06:54;;;;;;;12.37;11.57;;;13.80;24.30;;;;;;4920908;29;20648;-80
2024/03/21 06:09:22;;;;;;;12.90;12.00;;;13.90;24.50;;;;;;4929230;29;20268;-79
2024/03/21 06:11:49;;;;;;;11.77;10.77;;;13.90;24.20;;;;;;4919537;29;20203;-80
2024/03/21 06:14:14;;;;;;;11.17;10.47;;;14.00;24.10;;;;;;4917353;29;20845;-81
2024/03/21 06:16:40;;;;;;;12.53;11.73;;;14.10;24.00;;;;;;4924067;29;20479;-80
2024/03/21 06:19:06;;;;;;;12.33;11.27;;;14.10;23.80;;;;;;4925229;29;20684;-78
2024/03/21 06:21:31;;;;;;;13.20;12.20;;;14.10;23.70;;;;;;4922272;29;20184;-78
2024/03/21 06:23:57;;;;;;;12.10;11.40;;;14.10;23.50;;;;;;4922307;29;20223;-79
2024/03/21 06:26:22;;;;;;;12.57;11.87;;;14.20;23.80;;;;;;4921368;29;20211;-78
2024/03/21 06:28:48;;;;;;;12.50;11.80;;;14.20;23.60;;;;;;4918056;29;20557;-79
2024/03/21 06:31:13;;;;;;;12.07;11.03;;;14.10;23.90;;;;;;4917782;29;20185;-79
2024/03/21 06:33:39;;;;;;;12.00;11.10;;;14.10;24.00;;;;;;4917764;29;20265;-79
2024/03/21 06:36:05;;;;;;;11.00;9.90;;;14.00;24.00;;;;;;4919531;29;20180;-80
2024/03/21 06:38:30;;;;;;;11.33;10.53;;;14.10;24.10;;;;;;4917960;29;20188;-79
2024/03/21 06:40:57;;;;;;;13.20;12.23;;;14.20;24.00;;;;;;4912272;29;20878;-78
2024/03/21 06:43:24;;;;;;;12.17;11.37;;;14.10;23.80;;;;;;4904884;29;20224;-78
2024/03/21 06:45:56;;;;;;;12.27;11.47;;;14.10;24.40;;;;;;4917562;29;20439;-79
2024/03/21 06:48:22;;;;;;;12.33;11.63;;;14.20;24.30;;;;;;4898226;29;20428;-80
2024/03/21 06:50:48;;;;;;;12.57;11.70;;;14.30;24.10;;;;;;4908771;29;20504;-79
2024/03/21 06:53:14;;;;;;;13.10;12.10;;;14.30;23.80;;;;;;4915700;29;20503;-79
2024/03/21 06:55:39;;;;;;;13.23;12.37;;;14.30;23.60;;;;;;4917538;29;20181;-80
2024/03/21 06:58:05;;;;;;;12.00;11.30;;;14.20;23.80;;;;;;4905653;29;20653;-78
2024/03/21 07:00:30;;;;;;;13.33;12.50;;;14.20;24.20;;;;;;4897159;29;20191;-79
2024/03/21 07:02:56;;;;;;;14.30;12.90;;;14.20;24.10;;;;;;4911411;29;20201;-79
2024/03/21 07:05:25;;;;;;;12.40;11.77;;;14.20;24.30;;;;;;4900190;29;20276;-80
2024/03/21 07:08:03;;;;;;;13.23;12.33;;;14.20;24.40;;;;;;4910710;29;20371;-81
2024/03/21 07:10:29;;;;;;;13.53;12.33;;;14.10;24.60;;;;;;4901647;29;20472;-78
2024/03/21 07:12:55;;;;;;;13.13;12.27;;;14.10;24.80;;;;;;4903771;29;21134;-78
2024/03/21 07:15:20;;;;;;;12.30;11.50;;;14.20;24.80;;;;;;4918517;29;20199;-82
2024/03/21 07:17:46;;;;;;;11.80;11.07;;;14.30;24.40;;;;;;4916822;29;20187;-82
2024/03/21 07:20:11;;;;;;;12.90;11.90;;;14.30;24.30;;;;;;4904943;29;20594;-81
2024/03/21 07:22:38;;;;;;;12.00;11.20;;;14.30;24.60;;;;;;4916534;29;20192;-82
2024/03/21 07:25:06;;;;;;;13.20;11.87;;;14.30;24.60;;;;;;4916901;29;20211;-83
2024/03/21 07:27:54;;;;;;;13.90;12.70;;;14.30;24.10;;;;;;4902276;29;20444;-82
2024/03/21 07:30:19;;;;;;;13.10;12.00;;;14.30;24.50;;;;;;4918778;29;20492;-82
2024/03/21 07:32:48;;;;;;;13.73;12.73;;;14.30;24.50;;;;;;4908526;29;20736;-82
2024/03/21 07:35:14;;;;;;;14.40;13.10;;;14.40;24.60;;;;;;4908175;29;20343;-81
2024/03/21 07:37:40;;;;;;;14.90;13.60;;;14.40;24.20;;;;;;4902948;29;20946;-79
2024/03/21 07:40:06;;;;;;;15.77;13.80;;;14.40;24.20;;;;;;4918299;29;20207;-78
2024/03/21 07:42:31;;;;;;;15.80;14.83;;;14.30;24.40;;;;;;4901395;29;20200;-80
2024/03/21 07:44:57;;;;;;;15.37;14.07;;;14.20;24.80;;;;;;4919895;29;20420;-81
2024/03/21 07:47:29;;;;;;;15.90;14.80;;;14.10;24.90;;;;;;4919646;29;20203;-81
2024/03/21 07:49:54;;;;;;;16.30;15.07;;;14.10;25.20;;;;;;4901821;29;21000;-82
2024/03/21 07:52:20;;;;;;;15.27;14.13;;;14.20;25.30;;;;;;4917516;29;20186;-83
2024/03/21 07:54:46;;;;;;;14.77;13.60;;;14.30;25.30;;;;;;4916959;29;20191;-83
2024/03/21 07:57:18;;;;;;;15.47;14.10;;;14.30;25.20;;;;;;4900760;29;20421;-81
2024/03/21 07:59:45;;;;;;;14.73;13.63;;;14.30;25.00;;;;;;4901162;29;20268;-82
2024/03/21 08:02:10;;;;;;;14.27;13.20;;;14.40;24.70;;;;;;4899461;29;20874;-81
2024/03/21 08:04:36;;;;;;;14.50;13.60;;;14.40;24.80;;;;;;4900064;29;20580;-82
2024/03/21 08:07:02;;;;;;;16.30;15.20;;;14.30;24.70;;;;;;4902222;29;20188;-82
2024/03/21 08:09:27;;;;;;;14.50;12.87;;;14.30;24.90;;;;;;4910520;29;20228;-81
2024/03/21 08:11:56;;;;;;;14.87;13.40;;;14.20;25.20;;;;;;4927235;29;20180;-81
2024/03/21 08:14:22;;;;;;;15.47;14.50;;;14.20;25.40;;;;;;4907812;29;20207;-80
2024/03/21 08:16:48;;;;;;;15.87;14.47;;;14.20;25.80;;;;;;4921426;29;20413;-83
2024/03/21 08:19:13;;;;;;;15.87;14.70;;;14.30;25.80;;;;;;4920062;29;20554;-80
2024/03/21 08:21:39;;;;;;;15.53;14.30;;;14.40;25.60;;;;;;4913462;29;20582;-80
2024/03/21 08:24:05;;;;;;;14.93;13.73;;;14.40;25.30;;;;;;4916268;29;20623;-80
2024/03/21 08:26:31;;;;;;;17.37;16.10;;;14.40;25.00;;;;;;4920259;29;20195;-80
2024/03/21 08:28:56;;;;;;;16.57;15.17;;;14.40;25.20;;;;;;4912255;29;20551;-79
2024/03/21 08:31:22;;;;;;;15.87;14.67;;;14.30;25.70;;;;;;4920455;29;20185;-78
2024/03/21 08:33:51;;;;;;;15.70;14.60;;;14.40;25.50;;;;;;4919285;29;20207;-82
2024/03/21 08:36:17;;;;;;;15.87;14.67;;;14.40;25.70;;;;;;4910927;29;20217;-79
2024/03/21 08:38:42;;;;;;;16.10;14.70;;;14.50;25.40;;;;;;4911117;29;20425;-81
2024/03/21 08:41:09;;;;;;;16.47;15.17;;;14.50;25.30;;;;;;4920093;29;20204;-81
2024/03/21 08:43:36;;;;;;;17.20;15.90;;;14.60;25.10;;;;;;4911202;29;20200;-81
2024/03/21 08:46:01;;;;;;;16.93;15.43;;;14.60;25.10;;;;;;4909939;29;20420;-80
2024/03/21 08:48:27;;;;;;;15.13;14.27;;;14.60;25.20;;;;;;4908933;29;20447;-80
2024/03/21 08:50:53;;;;;;;16.97;15.77;;;14.60;25.00;;;;;;4912088;29;20665;-81
2024/03/21 08:53:19;;;;;;;14.07;13.20;;;14.70;25.00;;;;;;4914630;29;20432;-81
2024/03/21 08:55:45;;;;;;;14.40;13.30;;;14.70;25.60;;;;;;4919200;29;20180;-80
2024/03/21 08:58:12;;;;;;;11.30;10.60;;;14.80;25.60;;;;;;4892502;29;20196;-79
2024/03/21 09:00:41;;;;;;;13.80;12.73;;;15.00;26.00;;;;;;4912496;29;20835;-82
2024/03/21 09:03:08;;;;;;;11.73;11.03;;;15.00;25.70;;;;;;4900105;29;20440;-80
2024/03/21 09:05:34;;;;;;;11.87;11.27;;;15.10;25.80;;;;;;4895965;29;20437;-82
2024/03/21 09:07:59;;;;;;;11.40;10.90;;;15.20;25.50;;;;;;4898018;29;20421;-80
2024/03/21 09:10:34;;;;;;;10.10;9.53;;;15.30;25.20;;;;;;4894619;29;20457;-81
2024/03/21 09:12:59;;;;;;;10.97;10.30;;;15.40;24.90;;;;;;4892327;29;20677;-79
2024/03/21 09:15:26;;;;;;;11.33;10.40;;;15.50;24.60;;;;;;4904787;29;20480;-82
2024/03/21 09:17:52;;;;;;;12.00;11.03;;;15.60;24.40;;;;;;4904309;29;20176;-82
2024/03/21 09:20:18;;;;;;;12.40;11.70;;;15.60;24.40;;;;;;4930721;29;20425;-82
2024/03/21 09:22:48;;;;;;;11.00;10.30;;;15.70;24.10;;;;;;4945511;23;21036;-81
2024/03/21 09:29:31;;;;;;;12.27;11.60;;;15.80;23.50;;;;;;4865115;29;20469;-82
2024/03/21 09:35:15;;;;;;;11.30;10.60;;;15.80;23.40;;;;;;4868463;29;20458;-82
2024/03/21 09:45:27;;;;;;;12.03;11.23;;;16.30;21.80;;;;;;4866319;29;20517;-83
2024/03/21 09:48:02;;;;;;;10.70;10.17;;;16.30;21.60;;;;;;4870740;29;20446;-81
2024/03/21 09:50:34;;;;;;;11.67;11.07;;;16.40;21.10;;;;;;4861766;29;20497;-83
2024/03/21 09:53:13;;;;;;;11.07;10.47;;;16.30;21.50;;;;;;4861072;29;20455;-83
2024/03/21 09:56:11;;;;;;;11.20;10.67;;;16.30;21.40;;;;;;4874510;29;20823;-82
2024/03/21 09:59:12;;;;;;;10.43;9.63;;;16.30;21.50;;;;;;4871852;29;20490;-83
2024/03/21 10:02:35;;;;;;;12.60;11.80;;;16.20;22.00;;;;;;4872331;29;20457;-82
2024/03/21 10:05:09;;;;;;;12.20;11.60;;;16.20;21.30;;;;;;4879074;29;20478;-81
2024/03/21 10:08:08;;;;;;;11.13;10.43;;;16.20;21.20;;;;;;4883094;29;20509;-81
2024/03/21 10:10:41;;;;;;;12.30;11.50;;;16.20;21.40;;;;;;4889876;29;21008;-81
2024/03/21 10:13:11;;;;;;;13.83;12.50;;;16.20;21.20;;;;;;4880513;29;20474;-80
2024/03/21 10:15:51;;;;;;;12.80;12.10;;;16.10;21.20;;;;;;4884308;29;20470;-81
2024/03/21 10:19:04;;;;;;;13.70;12.80;;;16.20;20.80;;;;;;4883594;29;20794;-80
2024/03/21 10:21:36;;;;;;;13.37;12.47;;;16.30;20.50;;;;;;4884403;29;20439;-81
2024/03/21 10:24:09;;;;;;;13.80;12.80;;;16.40;20.50;;;;;;4877937;29;20490;-82
2024/03/21 10:27:09;;;;;;;14.00;13.00;;;16.50;20.50;;;;;;4884314;29;20474;-82
2024/03/21 10:29:56;;;;;;;14.63;13.73;;;16.50;20.60;;;;;;4891668;29;20989;-82
2024/03/21 10:32:45;;;;;;;16.80;15.27;;;16.50;20.20;;;;;;4894102;29;20446;-81
2024/03/21 10:35:20;;;;;;;18.03;16.67;;;16.70;19.50;;;;;;4885787;29;20434;-81
2024/03/21 10:37:51;;;;;;;15.83;14.53;;;16.70;19.20;;;;;;4886260;29;20519;-82
2024/03/21 10:40:33;;;;;;;15.53;14.37;;;16.80;19.50;;;;;;4886228;29;20449;-81
2024/03/21 10:43:19;;;;;;;16.30;15.10;;;16.80;19.50;;;;;;4885194;29;20445;-81
2024/03/21 10:45:47;;;;;;;16.93;15.80;;;16.90;19.40;;;;;;4883508;29;20441;-81
2024/03/21 10:48:30;;;;;;;16.10;14.63;;;17.00;18.80;;;;;;4884492;29;20958;-81
2024/03/21 10:50:56;;;;;;;15.43;14.10;;;17.10;18.70;;;;;;4899988;29;20437;-81
2024/03/21 10:53:25;;;;;;;15.47;14.47;;;17.10;18.60;;;;;;4883684;29;20984;-80
2024/03/21 10:55:52;;;;;;;15.40;14.23;;;17.10;18.20;;;;;;4899261;29;20207;-81
2024/03/21 10:58:19;;;;;;;14.87;13.83;;;17.10;18.60;;;;;;4882543;29;20442;-81
2024/03/21 11:00:54;;;;;;;14.90;13.90;;;17.20;18.60;;;;;;4882982;29;20831;-80
2024/03/21 11:03:20;;;;;;;14.47;13.57;;;17.10;18.30;;;;;;4882601;29;20461;-80
2024/03/21 11:05:59;;;;;;;14.03;13.03;;;17.20;18.80;;;;;;4885150;29;20452;-80
2024/03/21 11:08:26;;;;;;;13.43;12.63;;;17.10;18.20;;;;;;4901401;29;20439;-80
2024/03/21 11:10:54;;;;;;;14.43;13.40;;;17.10;18.10;;;;;;4884042;29;20445;-80
2024/03/21 11:13:27;;;;;;;15.00;13.80;;;17.20;18.00;;;;;;4894988;29;20473;-81
2024/03/21 11:15:53;;;;;;;15.50;14.40;;;17.20;18.20;;;;;;4876538;29;20443;-82
2024/03/21 11:18:28;;;;;;;13.03;12.17;;;17.10;18.10;;;;;;4886165;29;20437;-82
2024/03/21 11:21:01;;;;;;;13.47;12.73;;;17.10;18.70;;;;;;4890309;29;20449;-81
2024/03/21 11:23:33;;;;;;;14.10;13.20;;;17.10;18.50;;;;;;4890338;29;20477;-82
2024/03/21 11:26:12;;;;;;;;;;;;;;;;;;;;;
2024/03/21 11:28:38;;;;;;;13.37;12.27;;;17.00;18.80;;;;;;4902991;29;20505;-82
2024/03/21 11:31:32;;;;;;;;;;;;;;;;;;;;;
2024/03/21 11:34:01;;;;;;;14.40;13.27;;;17.00;19.10;;;;;;4900238;29;20909;-81
2024/03/21 11:36:30;;;;;;;15.47;14.40;;;17.10;18.90;;;;;;4868962;29;20490;-82
2024/03/21 11:38:58;;;;;;;15.07;13.77;;;17.00;19.20;;;;;;4884071;29;20880;-82
2024/03/21 11:41:39;;;;;;;16.63;15.33;;;17.10;19.50;;;;;;4886494;29;20447;-82
2024/03/21 11:44:22;;;;;;;16.73;15.63;;;17.10;19.40;;;;;;4878307;29;20466;-82
2024/03/21 11:47:01;;;;;;;17.87;16.77;;;17.10;19.40;;;;;;4885130;29;20514;-82
2024/03/21 11:49:35;;;;;;;18.30;16.60;;;17.10;18.80;;;;;;4886126;29;20837;-82
2024/03/21 11:52:06;;;;;;;18.30;17.00;;;17.20;18.40;;;;;;4891678;29;20432;-82
2024/03/21 11:54:32;;;;;;;17.50;16.00;;;17.20;18.20;;;;;;4881799;29;20465;-83
2024/03/21 11:57:16;;;;;;;18.43;17.20;;;17.20;17.80;;;;;;4890423;29;20430;-82
2024/03/21 11:59:45;;;;;;;17.20;16.10;;;17.10;18.00;;;;;;4890366;29;20441;-82
2024/03/21 12:02:19;;;;;;;16.90;15.80;;;17.00;18.70;;;;;;4891944;29;20449;-82
2024/03/21 12:08:30;;;;;;;16.23;15.23;;;16.90;17.90;;;;;;4893063;29;20491;-82
2024/03/21 12:10:58;;;;;;;20.70;19.17;;;16.90;18.40;;;;;;4889621;29;20469;-81
2024/03/21 12:13:41;;;;;;;18.53;17.17;;;16.80;18.70;;;;;;4887453;29;20506;-82
2024/03/21 12:16:13;;;;;;;18.90;17.57;;;16.80;19.20;;;;;;4898876;29;20417;-82
2024/03/21 12:18:39;;;;;;;21.33;19.73;;;16.80;19.50;;;;;;4906012;29;20429;-82
2024/03/21 12:21:13;;;;;;;18.33;17.13;;;16.80;19.60;;;;;;4889248;29;20433;-82
2024/03/21 12:23:57;;;;;;;20.20;18.80;;;16.90;19.60;;;;;;4882063;29;20546;-82
2024/03/21 12:26:38;;;;;;;19.87;18.47;;;17.00;19.70;;;;;;4883549;29;20433;-82
2024/03/21 12:29:17;;;;;;;20.80;19.20;;;17.00;19.70;;;;;;4877861;29;20466;-82
2024/03/21 12:32:11;;;;;;;19.57;18.27;;;17.00;19.70;;;;;;4871393;29;20446;-82
2024/03/21 12:35:02;;;;;;;19.67;18.47;;;17.00;19.90;;;;;;4886987;29;20478;-82
2024/03/21 12:37:42;;;;;;;19.47;18.27;;;16.90;20.30;;;;;;4883697;29;20482;-83
2024/03/21 12:40:19;;;;;;;20.10;18.70;;;16.90;20.30;;;;;;4876857;29;20923;-82
2024/03/21 12:43:07;;;;;;;18.97;17.80;;;16.80;20.50;;;;;;4877466;29;20497;-83
2024/03/21 12:46:27;;;;;;;20.30;19.00;;;16.80;20.80;;;;;;4881422;29;20507;-83
2024/03/21 12:49:27;;;;;;;20.03;18.83;;;16.90;19.90;;;;;;4874932;29;20470;-83
2024/03/21 12:52:31;;;;;;;19.57;18.37;;;16.90;19.60;;;;;;4874224;29;20841;-83
2024/03/21 12:55:33;;;;;;;21.70;20.40;;;16.90;19.60;;;;;;4870612;29;20454;-83
2024/03/21 12:58:24;;;;;;;20.67;19.43;;;16.90;19.60;;;;;;4842455;29;20468;-82
2024/03/21 13:01:49;;;;;;;;;;;;;;;;;;;;;
2024/03/21 13:25:45;;;;;;;16.70;15.67;;;16.90;17.80;;;;;;4940335;29;20503;-82
2024/03/21 13:38:57;;;;;;;14.33;13.63;;;16.80;19.00;;;;;;4853268;29;20451;-82
2024/03/21 13:41:39;;;;;;;13.63;12.70;;;16.90;18.90;;;;;;4862544;29;20459;-82
2024/03/21 13:44:37;;;;;;;13.43;12.43;;;16.90;19.00;;;;;;4866304;29;20511;-82
2024/03/21 13:47:44;;;;;;;14.20;13.30;;;17.00;19.10;;;;;;4883050;29;20450;-81
2024/03/21 13:51:08;;;;;;;15.10;14.03;;;17.00;18.10;;;;;;4867155;29;20480;-82
2024/03/21 13:53:40;;;;;;;23.07;21.23;;;17.10;18.00;;;;;;4816124;29;20508;-83
2024/03/21 13:56:24;;;;;;;31.90;29.30;;;17.00;19.50;;;;;;4826353;29;20491;-82
2024/03/21 13:59:31;;;;;;;35.57;32.70;;;17.00;19.70;;;;;;4843356;29;20436;-83
2024/03/21 14:12:39;;;;;;;44.73;41.07;;;16.80;20.70;;;;;;4795558;29;20471;-82
2024/03/21 14:15:43;;;;;;;44.67;40.40;;;16.80;20.50;;;;;;4888474;29;20433;-83
2024/03/21 14:18:12;;;;;;;44.27;40.47;;;16.80;20.60;;;;;;4886084;29;20426;-81
2024/03/21 14:20:44;;;;;;;43.40;39.77;;;16.80;20.40;;;;;;4870231;29;20437;-83
2024/03/21 14:23:16;;;;;;;44.50;40.80;;;16.80;20.00;;;;;;4929178;29;20448;-83
2024/03/21 14:36:26;;;;;;;34.97;32.07;;;16.70;18.60;;;;;;4874891;29;20422;-84
2024/03/21 14:42:31;;;;;;;35.17;31.87;;;16.80;19.50;;;;;;4891133;29;20441;-82
2024/03/21 14:45:16;;;;;;;34.23;31.17;;;16.70;18.20;;;;;;4881629;29;20456;-81
2024/03/21 14:47:51;;;;;;;36.00;32.63;;;16.70;18.40;;;;;;4931919;29;20459;-83
2024/03/21 14:50:18;;;;;;;44.30;39.90;;;16.70;18.60;;;;;;4945655;29;20231;-81
2024/03/21 14:52:57;;;;;;;44.47;40.33;;;16.80;19.40;;;;;;4936530;29;20788;-83
2024/03/21 14:55:34;;;;;;;36.83;33.83;;;16.80;20.10;;;;;;4934034;29;20427;-83
2024/03/21 14:58:03;;;;;;;36.43;33.40;;;16.80;19.00;;;;;;4925049;29;20426;-83
2024/03/21 15:00:30;;;;;;;35.40;32.30;;;16.80;18.60;;;;;;4905974;29;20604;-83
2024/03/21 15:02:56;;;;;;;32.80;30.00;;;16.80;16.80;;;;;;4924272;29;20836;-83
2024/03/21 15:05:23;;;;;;;32.67;30.07;;;16.80;16.50;;;;;;4942028;29;20424;-81
2024/03/21 15:07:49;;;;;;;33.57;30.43;;;16.80;16.20;;;;;;4926259;29;20467;-81
2024/03/21 15:10:19;;;;;;;29.10;26.80;;;16.70;17.50;;;;;;4921044;29;20463;-83
2024/03/21 15:13:03;;;;;;;25.70;23.80;;;16.80;16.40;;;;;;4922625;29;20441;-83
2024/03/21 15:15:29;;;;;;;31.67;28.97;;;16.80;15.40;;;;;;4915889;29;20417;-82
2024/03/21 15:17:55;;;;;;;28.53;25.90;;;16.80;16.20;;;;;;4940882;29;20983;-82
2024/03/21 15:20:42;;;;;;;32.70;29.40;;;16.70;15.40;;;;;;4924048;29;20188;-82
2024/03/21 15:23:08;;;;;;;30.80;28.03;;;16.70;16.00;;;;;;4951148;23;20448;-79
2024/03/21 15:25:38;;;;;;;26.50;24.10;;;16.60;15.70;;;;;;4921681;29;20451;-80
2024/03/21 15:28:06;;;;;;;58.50;47.47;;;16.60;15.00;;;;;;4915284;29;20195;-79
2024/03/21 15:30:32;;;;;;;48.17;41.23;;;16.60;17.40;;;;;;4932979;29;20560;-81
2024/03/21 15:32:58;;;;;;;26.20;23.83;;;16.60;15.80;;;;;;4915714;29;20475;-78
2024/03/21 15:35:24;;;;;;;25.00;23.00;;;16.60;15.30;;;;;;4924511;29;20200;-80
2024/03/21 15:37:49;;;;;;;22.90;21.10;;;16.60;15.60;;;;;;4925141;29;20205;-79
2024/03/21 15:40:15;;;;;;;22.83;21.03;;;16.60;15.40;;;;;;4929961;29;20193;-79
2024/03/21 15:42:41;;;;;;;21.40;19.77;;;16.60;15.40;;;;;;4936085;29;20195;-79
2024/03/21 15:45:07;;;;;;;21.40;19.80;;;16.60;15.20;;;;;;4931851;29;20455;-79
2024/03/21 15:47:33;;;;;;;22.87;20.80;;;16.60;15.30;;;;;;4941709;29;20238;-79
2024/03/21 15:49:58;;;;;;;20.37;18.93;;;16.60;15.50;;;;;;4925699;29;20472;-79
2024/03/21 15:52:24;;;;;;;21.77;20.27;;;16.70;16.30;;;;;;4931557;29;20203;-79
2024/03/21 15:54:49;;;;;;;20.97;19.37;;;16.70;15.20;;;;;;4923632;29;20224;-79
2024/03/21 15:57:15;;;;;;;23.53;21.40;;;16.70;15.80;;;;;;4939775;29;20203;-77
2024/03/21 15:59:40;;;;;;;21.80;20.10;;;16.70;15.20;;;;;;4921600;29;20196;-79
2024/03/21 16:02:08;;;;;;;25.70;23.40;;;16.70;15.20;;;;;;4929330;29;20199;-79
2024/03/21 16:04:37;;;;;;;19.60;18.20;;;16.70;15.50;;;;;;4921203;29;20231;-79
2024/03/21 16:07:02;;;;;;;23.13;20.90;;;16.70;15.40;;;;;;4912537;29;20947;-78
2024/03/21 16:09:29;;;;;;;29.30;26.37;;;16.70;16.00;;;;;;4928272;29;20523;-81
2024/03/21 16:11:55;;;;;;;21.30;19.50;;;16.60;15.90;;;;;;4906964;29;20200;-78
2024/03/21 16:14:21;;;;;;;18.73;17.33;;;16.60;15.70;;;;;;4918198;29;20449;-78
2024/03/21 16:16:46;;;;;;;19.57;18.00;;;16.60;15.50;;;;;;4903731;29;20733;-79
2024/03/21 16:19:12;;;;;;;17.60;16.27;;;16.60;15.60;;;;;;4910975;29;20201;-79
2024/03/21 16:21:41;;;;;;;19.50;18.03;;;16.50;15.90;;;;;;4919854;29;20248;-79
2024/03/21 16:24:07;;;;;;;18.73;17.13;;;16.50;16.10;;;;;;4918321;29;20225;-79
2024/03/21 16:26:33;;;;;;;20.00;18.43;;;16.50;15.80;;;;;;4917510;29;20512;-79
2024/03/21 16:28:58;;;;;;;19.90;18.50;;;16.50;15.90;;;;;;4934644;29;20491;-78
2024/03/21 16:31:24;;;;;;;16.70;15.53;;;16.50;16.70;;;;;;4921133;29;20243;-79
2024/03/21 16:33:51;;;;;;;18.00;16.50;;;16.50;16.10;;;;;;4907909;29;20212;-77
2024/03/21 16:36:17;;;;;;;15.97;14.77;;;16.50;16.60;;;;;;4897386;29;20201;-77
2024/03/21 16:38:43;;;;;;;16.90;15.80;;;16.50;16.40;;;;;;4929345;29;20437;-78
2024/03/21 16:41:09;;;;;;;17.87;16.47;;;16.50;16.30;;;;;;4917363;29;20263;-80
2024/03/21 16:43:35;;;;;;;18.90;17.37;;;16.50;16.00;;;;;;4912265;29;20467;-79
2024/03/21 16:46:01;;;;;;;19.33;17.73;;;16.50;16.20;;;;;;4918447;29;20436;-79
2024/03/21 16:48:26;;;;;;;17.50;16.10;;;16.40;16.70;;;;;;4921355;29;20219;-79
2024/03/21 16:50:52;;;;;;;19.90;17.87;;;16.40;16.50;;;;;;4919672;29;20944;-77